Авиационная погода в Калуге (Грабцево)

СКИДКИ НА СМАРТФОНЫ!

Регион: 
Погода METAR: 
UUBC 120000Z AUTO 11004MPS 9999 // 08/08 Q1016 RMK QFE744/0992
Время наблюдения
2022-09-12T00:00:00Z
Температура C
8.0
Точка росы
8.0
Направление ветра
110
Скорость ветра (узлы)
8
Метео видимость
6.21
Облачность
Нижняя граница облачности (футы)
Явления погоды
Условия полета

Скидки на навигаторы!